Terminal Aerodrome Forecast
Issued by NWS Amarillo, TX

Home | Current Version | Previous Version | Text Only | Print | Product List | Glossary On
Versions: 1 2 3 4 5 6 7 8 9 10 11 12 13 14 15 16
000
FTUS44 KAMA 280100 AAA
TAFDHT
TAF AMD
KDHT 280154Z 2802/2824 17012KT P6SM SCT100
     FM280900 18015KT P6SM VCSH BKN015
     FM281500 22015KT P6SM SCT040 BKN250 PROB30 2818/2823 -TSRA
      BKN040CB=

USA.gov is the U.S. government's official web portal to all federal, state and local government web resources and services.